createdAt,value
2016-04-23T00:00:34.607Z,1016.44
2016-04-23T00:01:53.844Z,1016.37
2016-04-23T00:03:37.709Z,1016.34
2016-04-23T00:04:37.727Z,1016.33
2016-04-23T00:05:37.746Z,1016.36
2016-04-23T00:06:50.499Z,1016.33
2016-04-23T00:09:13.584Z,1016.3
2016-04-23T00:10:12.182Z,1016.33
2016-04-23T00:11:12.199Z,1016.29
2016-04-23T00:12:12.218Z,1016.29
2016-04-23T00:13:12.220Z,1016.28
2016-04-23T00:14:12.239Z,1016.25
2016-04-23T00:15:12.242Z,1016.21
2016-04-23T00:16:12.244Z,1016.26
2016-04-23T00:17:12.262Z,1016.24
2016-04-23T00:18:12.281Z,1016.27
2016-04-23T00:19:18.565Z,1016.25
2016-04-23T00:20:12.301Z,1016.24
2016-04-23T00:21:31.523Z,1016.24
2016-04-23T00:22:12.323Z,1016.22
2016-04-23T00:24:27.531Z,1016.19
2016-04-23T00:25:27.550Z,1016.2
2016-04-23T00:26:27.567Z,1016.17
2016-04-23T00:27:27.570Z,1016.17
2016-04-23T00:28:27.589Z,1016.18
2016-04-23T00:29:27.607Z,1016.13
2016-04-23T00:30:27.610Z,1016.12
2016-04-23T00:31:27.628Z,1016.16
2016-04-23T00:33:27.665Z,1016.12
2016-04-23T00:34:27.668Z,1016.11
2016-04-23T00:35:27.702Z,1016.1
2016-04-23T00:36:28.298Z,1016.09
2016-04-23T00:37:27.707Z,1016.07
2016-04-23T00:38:40.460Z,1016.04
2016-04-23T00:39:27.743Z,1016.06
2016-04-23T00:40:27.746Z,1016.02
2016-04-23T00:41:27.765Z,1016.02
2016-04-23T00:42:40.501Z,1015.99
2016-04-23T00:43:27.785Z,1015.99
2016-04-23T00:44:53.476Z,1015.97
2016-04-23T00:45:37.385Z,1015.97
2016-04-23T00:46:37.387Z,1015.95
2016-04-23T00:47:37.390Z,1015.96
2016-04-23T00:49:03.098Z,1015.96
2016-04-23T00:49:41.333Z,1015.91
2016-04-23T00:50:41.336Z,1015.87
2016-04-23T00:51:41.353Z,1015.86
2016-04-23T00:52:47.623Z,1015.83
2016-04-23T00:53:41.375Z,1015.84
2016-04-23T00:54:41.393Z,1015.82
2016-04-23T00:55:47.677Z,1015.82
2016-04-23T00:56:41.477Z,1015.85
2016-04-23T00:57:41.433Z,1015.82
2016-04-23T00:58:54.169Z,1015.85
2016-04-23T00:59:47.719Z,1015.85
2016-04-23T01:01:07.147Z,1015.82
2016-04-23T01:02:00.680Z,1015.84
2016-04-23T01:02:41.493Z,1015.85
2016-04-23T01:03:50.416Z,1015.79
2016-04-23T01:04:50.435Z,1015.81
2016-04-23T01:05:50.439Z,1015.79
2016-04-23T01:07:03.193Z,1015.77
2016-04-23T01:07:50.474Z,1015.75
2016-04-23T01:08:50.478Z,1015.75
2016-04-23T01:09:51.918Z,1015.73
2016-04-23T01:10:50.515Z,1015.73
2016-04-23T01:11:50.517Z,1015.68
2016-04-23T01:12:50.536Z,1015.69
2016-04-23T01:13:50.538Z,1015.67
2016-04-23T01:14:50.556Z,1015.66
2016-04-23T01:15:50.574Z,1015.64
2016-04-23T01:18:00.254Z,1015.65
2016-04-23T01:19:00.257Z,1015.59
2016-04-23T01:20:00.276Z,1015.61
2016-04-23T01:21:00.295Z,1015.59
2016-04-23T01:22:00.312Z,1015.63
2016-04-23T01:23:00.314Z,1015.62
2016-04-23T01:24:19.553Z,1015.62
2016-04-23T01:25:00.367Z,1015.59
2016-04-23T01:26:00.354Z,1015.57
2016-04-23T01:27:00.372Z,1015.58
2016-04-23T01:28:00.372Z,1015.55
2016-04-23T01:29:00.391Z,1015.58
2016-04-23T01:30:06.677Z,1015.56
2016-04-23T01:31:00.427Z,1015.56
2016-04-23T01:32:00.430Z,1015.58
2016-04-23T01:33:00.449Z,1015.59
2016-04-23T01:34:00.452Z,1015.57
2016-04-23T01:35:00.469Z,1015.58
2016-04-23T01:36:00.488Z,1015.57
2016-04-23T01:37:00.491Z,1015.55
2016-04-23T01:38:00.508Z,1015.52
2016-04-23T01:39:00.527Z,1015.49
2016-04-23T01:40:00.530Z,1015.47
2016-04-23T01:41:00.548Z,1015.46
2016-04-23T01:42:00.566Z,1015.44
2016-04-23T01:43:00.569Z,1015.39
2016-04-23T01:44:00.587Z,1015.39
2016-04-23T01:45:00.590Z,1015.42
2016-04-23T01:46:00.609Z,1015.41
2016-04-23T01:47:13.364Z,1015.44
2016-04-23T01:48:00.629Z,1015.42
2016-04-23T01:49:00.648Z,1015.37
2016-04-23T01:50:00.666Z,1015.4
2016-04-23T01:51:00.668Z,1015.4
2016-04-23T01:52:00.687Z,1015.38
2016-04-23T01:53:02.115Z,1015.35
2016-04-23T01:54:00.709Z,1015.39
2016-04-23T01:55:00.726Z,1015.37
2016-04-23T01:56:02.154Z,1015.34
2016-04-23T01:57:02.172Z,1015.37
2016-04-23T01:58:00.766Z,1015.35
2016-04-23T01:59:00.784Z,1015.37
2016-04-23T02:00:00.802Z,1015.35
2016-04-23T02:01:00.806Z,1015.32
2016-04-23T02:02:00.808Z,1015.3
2016-04-23T02:03:00.825Z,1015.32
2016-04-23T02:04:13.580Z,1015.29
2016-04-23T02:05:13.600Z,1015.25
2016-04-23T02:06:26.540Z,1015.24
2016-04-23T02:07:20.089Z,1015.24
2016-04-23T02:08:00.902Z,1015.24
2016-04-23T02:09:00.905Z,1015.18
2016-04-23T02:10:01.535Z,1015.19
2016-04-23T02:11:00.941Z,1015.22
2016-04-23T02:12:00.959Z,1015.2
2016-04-23T02:13:00.963Z,1015.24
2016-04-23T02:14:00.965Z,1015.23
2016-04-23T02:15:00.983Z,1015.23
2016-04-23T02:16:01.001Z,1015.2
2016-04-23T02:17:01.004Z,1015.19
2016-04-23T02:18:01.023Z,1015.15
2016-04-23T02:19:01.025Z,1015.15
2016-04-23T02:20:01.043Z,1015.15
2016-04-23T02:21:01.062Z,1015.12
2016-04-23T02:22:13.817Z,1015.13
2016-04-23T02:23:01.092Z,1015.12
2016-04-23T02:24:01.095Z,1015.12
2016-04-23T02:25:01.114Z,1015.08
2016-04-23T02:26:01.116Z,1015.11
2016-04-23T02:27:01.135Z,1015.09
2016-04-23T02:28:01.152Z,1015.08
2016-04-23T02:29:01.156Z,1015.08
2016-04-23T02:30:01.174Z,1015.08
2016-04-23T02:31:01.192Z,1015.09
2016-04-23T02:32:01.195Z,1015.02
2016-04-23T02:33:01.229Z,1015.03
2016-04-23T02:34:01.232Z,1015.04
2016-04-23T02:35:01.234Z,1015.02
2016-04-23T02:36:01.252Z,1015
2016-04-23T02:37:01.271Z,1015
2016-04-23T02:38:01.305Z,1015.04
2016-04-23T02:39:07.560Z,1015.02
2016-04-23T02:40:14.048Z,1015.01
2016-04-23T02:41:01.313Z,1015.06
2016-04-23T02:42:01.440Z,1015.03
2016-04-23T02:43:07.618Z,1015.02
2016-04-23T02:44:01.368Z,1015
2016-04-23T02:45:01.371Z,1014.99
2016-04-23T02:46:01.389Z,1014.98
2016-04-23T02:47:01.407Z,1014.95
2016-04-23T02:48:01.410Z,1014.97
2016-04-23T02:49:01.459Z,1014.95
2016-04-23T02:50:01.447Z,1014.9
2016-04-23T02:51:01.449Z,1014.96
2016-04-23T02:52:14.205Z,1014.94
2016-04-23T02:53:07.738Z,1014.9
2016-04-23T02:54:01.488Z,1014.9
2016-04-23T02:55:01.507Z,1014.89
2016-04-23T02:56:01.525Z,1014.91
2016-04-23T02:57:27.218Z,1014.92
2016-04-23T02:58:11.081Z,1014.9
2016-04-23T02:59:30.302Z,1014.92
2016-04-23T03:00:11.116Z,1014.88
2016-04-23T03:01:11.166Z,1014.84
2016-04-23T03:02:11.138Z,1014.86
2016-04-23T03:03:11.203Z,1014.88
2016-04-23T03:04:11.174Z,1014.87
2016-04-23T03:05:11.771Z,1014.87
2016-04-23T03:06:11.196Z,1014.87
2016-04-23T03:07:11.213Z,1014.82
2016-04-23T03:08:11.232Z,1014.82
2016-04-23T03:09:11.235Z,1014.8
2016-04-23T03:10:11.254Z,1014.83
2016-04-23T03:11:23.990Z,1014.84
2016-04-23T03:12:11.273Z,1014.81
2016-04-23T03:13:11.293Z,1014.8
2016-04-23T03:14:11.295Z,1014.78
2016-04-23T03:15:11.328Z,1014.8
2016-04-23T03:16:11.410Z,1014.8
2016-04-23T03:17:11.350Z,1014.74
2016-04-23T03:18:11.462Z,1014.74
2016-04-23T03:19:11.371Z,1014.73
2016-04-23T03:20:24.124Z,1014.7
2016-04-23T03:21:11.408Z,1014.67
2016-04-23T03:22:11.426Z,1014.68
2016-04-23T03:23:11.428Z,1014.68
2016-04-23T03:24:37.119Z,1014.69
2016-04-23T03:25:11.449Z,1014.66
2016-04-23T03:27:11.487Z,1014.66
2016-04-23T03:28:11.489Z,1014.67
2016-04-23T03:29:11.508Z,1014.69
2016-04-23T03:30:11.525Z,1014.68
2016-04-23T03:31:11.622Z,1014.7
2016-04-23T03:32:11.563Z,1014.67
2016-04-23T03:33:11.674Z,1014.67
2016-04-23T03:34:11.802Z,1014.66
2016-04-23T03:35:11.649Z,1014.69
2016-04-23T03:36:17.886Z,1014.66
2016-04-23T03:37:11.622Z,1014.67
2016-04-23T03:38:11.625Z,1014.66
2016-04-23T03:39:11.644Z,1014.64
2016-04-23T03:40:11.662Z,1014.59
2016-04-23T03:41:11.679Z,1014.61
2016-04-23T03:42:11.682Z,1014.6
2016-04-23T03:43:17.983Z,1014.58
2016-04-23T03:44:17.985Z,1014.61
2016-04-23T03:45:11.738Z,1014.61
2016-04-23T03:46:11.740Z,1014.6
2016-04-23T03:47:11.759Z,1014.6
2016-04-23T03:48:11.777Z,1014.61
2016-04-23T03:49:11.795Z,1014.59
2016-04-23T03:50:11.798Z,1014.61
2016-04-23T03:51:11.817Z,1014.58
2016-04-23T03:52:11.835Z,1014.63
2016-04-23T03:53:11.853Z,1014.62
2016-04-23T03:54:11.856Z,1014.6
2016-04-23T03:55:11.889Z,1014.62
2016-04-23T03:56:11.880Z,1014.59
2016-04-23T03:57:11.899Z,1014.64
2016-04-23T03:58:11.917Z,1014.59
2016-04-23T03:59:11.936Z,1014.62
2016-04-23T04:00:24.687Z,1014.6
2016-04-23T04:01:11.957Z,1014.61
2016-04-23T04:02:11.976Z,1014.58
2016-04-23T04:03:11.993Z,1014.62
2016-04-23T04:04:24.745Z,1014.64
2016-04-23T04:05:12.014Z,1014.63
2016-04-23T04:06:24.767Z,1014.62
2016-04-23T04:07:12.051Z,1014.62
2016-04-23T04:08:12.054Z,1014.63
2016-04-23T04:09:12.072Z,1014.62
2016-04-23T04:10:37.761Z,1014.61
2016-04-23T04:11:13.515Z,1014.62
2016-04-23T04:12:12.111Z,1014.63
2016-04-23T04:13:21.973Z,1014.62
2016-04-23T04:14:21.992Z,1014.57
2016-04-23T04:15:22.010Z,1014.6
2016-04-23T04:16:22.013Z,1014.57
2016-04-23T04:17:22.031Z,1014.53
2016-04-23T04:18:22.049Z,1014.57
2016-04-23T04:19:23.474Z,1014.53
2016-04-23T04:20:22.069Z,1014.53
2016-04-23T04:21:22.088Z,1014.58
2016-04-23T04:22:34.841Z,1014.56
2016-04-23T04:23:22.110Z,1014.55
2016-04-23T04:24:47.800Z,1014.55
2016-04-23T04:25:37.974Z,1014.58
2016-04-23T04:26:50.930Z,1014.58
2016-04-23T04:27:34.838Z,1014.59
2016-04-23T04:28:34.841Z,1014.59
2016-04-23T04:29:34.860Z,1014.58
2016-04-23T04:30:54.082Z,1014.56
2016-04-23T04:31:41.163Z,1014.56
2016-04-23T04:33:34.934Z,1014.53
2016-04-23T04:34:34.936Z,1014.51
2016-04-23T04:35:34.954Z,1014.51
2016-04-23T04:36:41.237Z,1014.52
2016-04-23T04:38:00.647Z,1014.5
2016-04-23T04:39:59.012Z,1014.46
2016-04-23T04:41:24.720Z,1014.47
2016-04-23T04:41:59.048Z,1014.47
2016-04-23T04:42:59.067Z,1014.44
2016-04-23T04:44:14.244Z,1014.42
2016-04-23T04:45:14.262Z,1014.42
2016-04-23T04:47:29.456Z,1014.42
2016-04-23T04:48:29.458Z,1014.38
2016-04-23T04:49:29.477Z,1014.36
2016-04-23T04:50:29.494Z,1014.39
2016-04-23T04:51:29.513Z,1014.39
2016-04-23T04:52:29.515Z,1014.4
2016-04-23T04:53:42.283Z,1014.36
2016-04-23T04:54:42.286Z,1014.37
2016-04-23T04:55:48.774Z,1014.38
2016-04-23T04:56:55.261Z,1014.4
2016-04-23T04:58:05.123Z,1014.4
2016-04-23T05:00:21.052Z,1014.35
2016-04-23T05:01:21.055Z,1014.36
2016-04-23T05:02:33.824Z,1014.32
2016-04-23T05:03:22.515Z,1014.39
2016-04-23T05:04:40.313Z,1014.34
2016-04-23T05:05:21.129Z,1014.33
2016-04-23T05:06:46.818Z,1014.39
2016-04-23T05:07:30.916Z,1014.34
2016-04-23T05:08:50.136Z,1014.35
2016-04-23T05:09:35.498Z,1014.36
2016-04-23T05:10:35.501Z,1014.29
2016-04-23T05:12:36.288Z,1014.35
2016-04-23T05:13:35.556Z,1014.3
2016-04-23T05:14:51.340Z,1014.34
2016-04-23T05:15:51.359Z,1014.32
2016-04-23T05:17:04.111Z,1014.27
2016-04-23T05:17:51.395Z,1014.29
2016-04-23T05:19:10.620Z,1014.33
2016-04-23T05:19:54.589Z,1014.31
2016-04-23T05:21:13.813Z,1014.31
2016-04-23T05:21:54.625Z,1014.34
2016-04-23T05:23:20.318Z,1014.31
2016-04-23T05:24:10.445Z,1014.32
2016-04-23T05:25:10.479Z,1014.33
2016-04-23T05:26:10.482Z,1014.32
2016-04-23T05:27:10.500Z,1014.29
2016-04-23T05:28:10.535Z,1014.27
2016-04-23T05:29:10.537Z,1014.34
2016-04-23T05:30:10.555Z,1014.31
2016-04-23T05:31:10.557Z,1014.27
2016-04-23T05:32:10.576Z,1014.31
2016-04-23T05:33:10.595Z,1014.33
2016-04-23T05:34:10.613Z,1014.28
2016-04-23T05:35:10.631Z,1014.27
2016-04-23T05:36:10.649Z,1014.29
2016-04-23T05:37:10.652Z,1014.27
2016-04-23T05:38:10.670Z,1014.25
2016-04-23T05:39:10.704Z,1014.25
2016-04-23T05:40:10.707Z,1014.23
2016-04-23T05:41:10.726Z,1014.24
2016-04-23T05:42:10.744Z,1014.25
2016-04-23T05:43:10.762Z,1014.26
2016-04-23T05:44:10.765Z,1014.26
2016-04-23T05:45:10.783Z,1014.28
2016-04-23T05:46:10.817Z,1014.3
2016-04-23T05:47:10.819Z,1014.28
2016-04-23T05:48:10.839Z,1014.31
2016-04-23T05:49:10.856Z,1014.31
2016-04-23T05:50:10.875Z,1014.31
2016-04-23T05:51:10.894Z,1014.36
2016-04-23T05:52:10.911Z,1014.35
2016-04-23T05:53:10.930Z,1014.37
2016-04-23T05:54:10.947Z,1014.4
2016-04-23T05:55:10.950Z,1014.37
2016-04-23T05:56:10.969Z,1014.4
2016-04-23T05:57:11.002Z,1014.37
2016-04-23T05:58:11.005Z,1014.36
2016-04-23T05:59:11.024Z,1014.36
2016-04-23T06:00:11.043Z,1014.34
2016-04-23T06:01:11.060Z,1014.38
2016-04-23T06:02:11.079Z,1014.38
2016-04-23T06:03:11.096Z,1014.36
2016-04-23T06:04:11.116Z,1014.29
2016-04-23T06:05:11.134Z,1014.35
2016-04-23T06:06:11.199Z,1014.42
2016-04-23T06:07:11.171Z,1014.37
2016-04-23T06:08:11.189Z,1014.36
2016-04-23T06:09:11.207Z,1014.4
2016-04-23T06:10:11.209Z,1014.43
2016-04-23T06:11:11.243Z,1014.41
2016-04-23T06:12:11.262Z,1014.42
2016-04-23T06:13:11.280Z,1014.39
2016-04-23T06:14:11.298Z,1014.34
2016-04-23T06:15:11.317Z,1014.28
2016-04-23T06:16:11.336Z,1014.36
2016-04-23T06:17:11.353Z,1014.25
2016-04-23T06:18:11.372Z,1014.41
2016-04-23T06:19:11.436Z,1014.45
2016-04-23T06:20:11.409Z,1014.43
2016-04-23T06:21:11.443Z,1014.3
2016-04-23T06:22:11.461Z,1014.35
2016-04-23T06:23:11.495Z,1014.41
2016-04-23T06:24:11.497Z,1014.4
2016-04-23T06:25:11.531Z,1014.47
2016-04-23T06:26:11.549Z,1014.5
2016-04-23T06:27:11.568Z,1014.48
2016-04-23T06:28:24.336Z,1014.52
2016-04-23T06:29:11.621Z,1014.48
2016-04-23T06:30:37.373Z,1014.49
2016-04-23T06:31:11.657Z,1014.51
2016-04-23T06:32:11.691Z,1014.47
2016-04-23T06:33:11.709Z,1014.47
2016-04-23T06:34:11.727Z,1014.46
2016-04-23T06:35:11.761Z,1014.44
2016-04-23T06:36:24.515Z,1014.45
2016-04-23T06:37:11.814Z,1014.41
2016-04-23T06:38:11.848Z,1014.41
2016-04-23T06:39:11.866Z,1014.35
2016-04-23T06:40:11.884Z,1014.43
2016-04-23T06:41:12.012Z,1014.4
2016-04-23T06:42:11.936Z,1014.36
2016-04-23T06:43:11.970Z,1014.44
2016-04-23T06:44:11.989Z,1014.42
2016-04-23T06:45:12.023Z,1014.39
2016-04-23T06:46:24.791Z,1014.35
2016-04-23T06:47:12.075Z,1014.37
2016-04-23T06:48:12.093Z,1014.38
2016-04-23T06:49:12.111Z,1014.4
2016-04-23T06:50:12.145Z,1014.43
2016-04-23T06:51:12.179Z,1014.45
2016-04-23T06:52:12.198Z,1014.44
2016-04-23T06:53:12.232Z,1014.46
2016-04-23T06:54:18.531Z,1014.49
2016-04-23T06:55:12.300Z,1014.48
2016-04-23T06:56:25.052Z,1014.37
2016-04-23T06:57:12.336Z,1014.48
2016-04-23T06:58:12.355Z,1014.5
2016-04-23T06:59:12.404Z,1014.48
2016-04-23T07:00:12.422Z,1014.45
2016-04-23T07:01:12.441Z,1014.35
2016-04-23T07:02:25.194Z,1014.35
2016-04-23T07:03:12.508Z,1014.32
2016-04-23T07:04:12.527Z,1014.23
2016-04-23T07:05:25.279Z,1014.15
2016-04-23T07:06:12.579Z,1014.27
2016-04-23T07:07:12.597Z,1014.24
2016-04-23T07:08:12.632Z,1014.14
2016-04-23T07:09:12.666Z,1014.3
2016-04-23T07:10:12.684Z,1014.35
2016-04-23T07:11:12.718Z,1014.18
2016-04-23T07:12:12.736Z,1014.17
2016-04-23T07:13:12.770Z,1014.37
2016-04-23T07:14:12.788Z,1014.21
2016-04-23T07:15:12.822Z,1014.2
2016-04-23T07:16:12.840Z,1013.99
2016-04-23T07:17:12.875Z,1014.05
2016-04-23T07:18:12.893Z,1013.99
2016-04-23T07:19:25.661Z,1014.03
2016-04-23T07:20:12.961Z,1014
2016-04-23T07:21:12.978Z,1014.02
2016-04-23T07:22:13.013Z,1014.16
2016-04-23T07:23:13.078Z,1013.95
2016-04-23T07:24:13.065Z,1014.18
2016-04-23T07:25:25.817Z,1014.26
2016-04-23T07:26:13.102Z,1014.17
2016-04-23T07:27:13.135Z,1014.2
2016-04-23T07:28:13.169Z,1014.15
2016-04-23T07:29:13.188Z,1014.11
2016-04-23T07:30:13.206Z,1014.08
2016-04-23T07:31:13.224Z,1014.07
2016-04-23T07:32:13.258Z,1014.01
2016-04-23T07:33:13.277Z,1014.07
2016-04-23T07:34:13.295Z,1014.06
2016-04-23T07:35:13.329Z,1014.08
2016-04-23T07:36:13.347Z,1014.1
2016-04-23T07:37:13.382Z,1014.04
2016-04-23T07:38:13.399Z,1014.12
2016-04-23T07:39:13.434Z,1014.13
2016-04-23T07:40:13.451Z,1014.07
2016-04-23T07:41:13.517Z,1014.11
2016-04-23T07:42:13.580Z,1013.92
2016-04-23T07:43:13.674Z,1013.87
2016-04-23T07:44:13.737Z,1013.85
2016-04-23T07:45:13.845Z,1014.06
2016-04-23T07:46:13.839Z,1013.91
2016-04-23T07:47:13.889Z,1013.92
2016-04-23T07:48:13.939Z,1014.01
2016-04-23T07:49:13.974Z,1013.76
2016-04-23T07:50:14.024Z,1013.82
2016-04-23T07:51:14.051Z,1013.88
2016-04-23T07:52:14.090Z,1013.81
2016-04-23T07:53:14.115Z,1013.82
2016-04-23T07:54:14.154Z,1013.8
2016-04-23T07:55:14.178Z,1013.77
2016-04-23T07:56:15.699Z,1013.77
2016-04-23T07:57:14.235Z,1013.81
2016-04-23T07:58:14.287Z,1013.82
2016-04-23T07:59:14.901Z,1013.78
2016-04-23T08:00:14.312Z,1013.76
2016-04-23T08:01:14.331Z,1013.69
2016-04-23T08:02:14.365Z,1013.65
2016-04-23T08:03:14.385Z,1013.66
2016-04-23T08:04:14.404Z,1013.67
2016-04-23T08:05:14.471Z,1013.66
2016-04-23T08:06:14.457Z,1013.59
2016-04-23T08:07:14.492Z,1013.59
2016-04-23T08:08:14.511Z,1013.56
2016-04-23T08:09:14.528Z,1013.53
2016-04-23T08:10:14.548Z,1013.58
2016-04-23T08:11:14.581Z,1013.48
2016-04-23T08:12:14.600Z,1013.5
2016-04-23T08:13:14.619Z,1013.47
2016-04-23T08:14:14.653Z,1013.52
2016-04-23T08:15:14.670Z,1013.48
2016-04-23T08:16:14.705Z,1013.6
2016-04-23T08:17:14.707Z,1013.54
2016-04-23T08:18:14.726Z,1013.64
2016-04-23T08:19:14.760Z,1013.6
2016-04-23T08:20:14.777Z,1013.54
2016-04-23T08:21:14.796Z,1013.55
2016-04-23T08:22:14.814Z,1013.53
2016-04-23T08:23:14.849Z,1013.54
2016-04-23T08:24:14.851Z,1013.58
2016-04-23T08:25:14.886Z,1013.54
2016-04-23T08:26:14.888Z,1013.59
2016-04-23T08:27:14.922Z,1013.58
2016-04-23T08:28:14.940Z,1013.64
2016-04-23T08:29:14.958Z,1013.58
2016-04-23T08:30:14.981Z,1013.58
2016-04-23T08:31:15.001Z,1013.64
2016-04-23T08:32:15.018Z,1013.57
2016-04-23T08:33:15.037Z,1013.58
2016-04-23T08:34:15.054Z,1013.52
2016-04-23T08:35:15.089Z,1013.56
2016-04-23T08:36:15.107Z,1013.49
2016-04-23T08:37:15.125Z,1013.43
2016-04-23T08:38:15.145Z,1013.44
2016-04-23T08:39:15.162Z,1013.44
2016-04-23T08:40:15.180Z,1013.46
2016-04-23T08:41:15.199Z,1013.45
2016-04-23T08:42:15.233Z,1013.42
2016-04-23T08:43:15.250Z,1013.37
2016-04-23T08:44:15.254Z,1013.37
2016-04-23T08:45:15.288Z,1013.4
2016-04-23T08:46:15.305Z,1013.36
2016-04-23T08:47:15.324Z,1013.29
2016-04-23T08:48:15.343Z,1013.35
2016-04-23T08:49:15.361Z,1013.34
2016-04-23T08:50:15.394Z,1013.41
2016-04-23T08:51:15.414Z,1013.41
2016-04-23T08:52:15.432Z,1013.37
2016-04-23T08:53:15.449Z,1013.32
2016-04-23T08:54:15.452Z,1013.27
2016-04-23T08:55:15.486Z,1013.27
2016-04-23T08:56:28.239Z,1013.52
2016-04-23T08:57:15.583Z,1013.39
2016-04-23T08:58:15.571Z,1013.29
2016-04-23T08:59:15.573Z,1013.27
2016-04-23T09:00:15.591Z,1013.32
2016-04-23T09:01:15.609Z,1013.25
2016-04-23T09:02:16.240Z,1013.26
2016-04-23T09:03:15.646Z,1013.22
2016-04-23T09:04:15.664Z,1013.32
2016-04-23T09:05:28.420Z,1013.29
2016-04-23T09:06:15.701Z,1013.3
2016-04-23T09:07:41.409Z,1013.28
2016-04-23T09:08:15.753Z,1013.3
2016-04-23T09:09:15.771Z,1013.21
2016-04-23T09:10:15.789Z,1013.27
2016-04-23T09:11:15.808Z,1013.23
2016-04-23T09:12:15.826Z,1013.21
2016-04-23T09:13:16.048Z,1013.3
2016-04-23T09:14:15.863Z,1013.29
2016-04-23T09:15:15.881Z,1013.25
2016-04-23T09:16:28.652Z,1013.23
2016-04-23T09:17:15.933Z,1013.23
2016-04-23T09:18:15.952Z,1013.23
2016-04-23T09:19:15.970Z,1013.2
2016-04-23T09:20:15.989Z,1013.26
2016-04-23T09:21:16.116Z,1013.27
2016-04-23T09:22:16.025Z,1013.27
2016-04-23T09:23:16.058Z,1013.26
2016-04-23T09:24:28.814Z,1013.13
2016-04-23T09:25:22.364Z,1013.11
2016-04-23T09:26:16.114Z,1013.25
2016-04-23T09:27:16.133Z,1013.16
2016-04-23T09:28:16.151Z,1013.11
2016-04-23T09:29:16.184Z,1013.11
2016-04-23T09:30:16.188Z,1013.16
2016-04-23T09:31:16.221Z,1013.15
2016-04-23T09:32:16.240Z,1013.16
2016-04-23T09:33:16.258Z,1013.18
2016-04-23T09:34:16.276Z,1013.3
2016-04-23T09:35:16.295Z,1013.27
2016-04-23T09:36:16.313Z,1013.25
2016-04-23T09:37:16.362Z,1013.36
2016-04-23T09:38:16.365Z,1013.3
2016-04-23T09:39:29.120Z,1013.23
2016-04-23T09:40:16.401Z,1013.22
2016-04-23T09:41:16.451Z,1013.18
2016-04-23T09:42:16.470Z,1013.18
2016-04-23T09:43:16.456Z,1013.17
2016-04-23T09:44:16.475Z,1013.19
2016-04-23T09:45:16.509Z,1013.18
2016-04-23T09:46:16.527Z,1013.2
2016-04-23T09:47:16.577Z,1013.23
2016-04-23T09:48:16.564Z,1013.26
2016-04-23T09:49:16.598Z,1013.22
2016-04-23T09:50:16.617Z,1013.15
2016-04-23T09:51:16.634Z,1013.15
2016-04-23T09:52:16.653Z,1013.41
2016-04-23T09:53:16.686Z,1013.32
2016-04-23T09:54:16.705Z,1013.27
2016-04-23T09:55:16.708Z,1013.3
2016-04-23T09:56:16.726Z,1013.2
2016-04-23T09:57:18.557Z,1013.29
2016-04-23T09:58:16.778Z,1013.22
2016-04-23T09:59:16.796Z,1013.3
2016-04-23T10:00:16.830Z,1013.29
2016-04-23T10:01:16.833Z,1013.21
2016-04-23T10:02:16.852Z,1013.28
2016-04-23T10:03:16.886Z,1013.16
2016-04-23T10:04:16.904Z,1013.12
2016-04-23T10:05:16.921Z,1013.23
2016-04-23T10:06:16.956Z,1013.33
2016-04-23T10:07:16.990Z,1013.23
2016-04-23T10:08:17.227Z,1013.28
2016-04-23T10:09:17.011Z,1013.25
2016-04-23T10:10:36.251Z,1013.25
2016-04-23T10:11:32.925Z,1013.18
2016-04-23T10:12:20.206Z,1013.28
2016-04-23T10:13:20.225Z,1013.25
2016-04-23T10:14:20.259Z,1013.24
2016-04-23T10:15:20.433Z,1013.17
2016-04-23T10:16:20.311Z,1013.16
2016-04-23T10:17:20.329Z,1013.22
2016-04-23T10:18:20.347Z,1013.2
2016-04-23T10:19:20.366Z,1013.15
2016-04-23T10:20:20.369Z,1013.13
2016-04-23T10:21:20.403Z,1013.14
2016-04-23T10:22:20.530Z,1013.17
2016-04-23T10:23:20.458Z,1013.31
2016-04-23T10:24:20.461Z,1013.24
2016-04-23T10:25:20.495Z,1013.23
2016-04-23T10:26:20.513Z,1013.16
2016-04-23T10:27:20.531Z,1013.14
2016-04-23T10:28:20.549Z,1013.16
2016-04-23T10:29:21.177Z,1013.17
2016-04-23T10:30:20.586Z,1013.27
2016-04-23T10:31:20.619Z,1013.19
2016-04-23T10:32:20.638Z,1013.12
2016-04-23T10:33:20.657Z,1013.27
2016-04-23T10:34:20.675Z,1013.22
2016-04-23T10:35:20.693Z,1013.09
2016-04-23T10:36:20.712Z,1013.15
2016-04-23T10:37:20.729Z,1013.17
2016-04-23T10:38:20.763Z,1013.18
2016-04-23T10:39:20.782Z,1013.12
2016-04-23T10:40:20.800Z,1013.18
2016-04-23T10:41:20.818Z,1013.08
2016-04-23T10:42:20.837Z,1013.16
2016-04-23T10:43:27.123Z,1013.16
2016-04-23T10:44:20.889Z,1013.17
2016-04-23T10:45:20.907Z,1013.11
2016-04-23T10:46:20.910Z,1013.19
2016-04-23T10:47:33.665Z,1013.08
2016-04-23T10:48:20.978Z,1013.1
2016-04-23T10:49:40.312Z,1013.14
2016-04-23T10:50:21.000Z,1013.08
2016-04-23T10:52:36.273Z,1013
2016-04-23T10:53:36.213Z,1013.06
2016-04-23T10:54:36.248Z,1013.05
2016-04-23T10:55:36.266Z,1013.08
2016-04-23T10:56:36.283Z,1013.03
2016-04-23T10:57:36.302Z,1013.05
2016-04-23T10:58:36.336Z,1012.99
2016-04-23T10:59:42.620Z,1012.98
2016-04-23T11:00:36.372Z,1012.94
2016-04-23T11:01:36.407Z,1012.93
2016-04-23T11:02:36.409Z,1012.86
2016-04-23T11:03:36.427Z,1012.88
2016-04-23T11:04:49.196Z,1012.86
2016-04-23T11:05:36.480Z,1012.87
2016-04-23T11:06:36.499Z,1012.86
2016-04-23T11:07:36.516Z,1012.79
2016-04-23T11:08:36.535Z,1012.8
2016-04-23T11:09:49.318Z,1012.71
2016-04-23T11:10:36.587Z,1012.71
2016-04-23T11:12:02.277Z,1012.83
2016-04-23T11:12:46.171Z,1012.86
2016-04-23T11:14:11.877Z,1012.78
2016-04-23T11:14:55.800Z,1012.79
2016-04-23T11:15:55.803Z,1012.76
2016-04-23T11:16:55.822Z,1012.76
2016-04-23T11:17:55.840Z,1012.8
2016-04-23T11:18:55.859Z,1012.73
2016-04-23T11:19:55.877Z,1012.77
2016-04-23T11:20:55.911Z,1012.76
2016-04-23T11:21:55.929Z,1012.73
2016-04-23T11:22:55.947Z,1012.73
2016-04-23T11:23:55.966Z,1012.71
2016-04-23T11:24:55.984Z,1012.7
2016-04-23T11:25:56.002Z,1012.76
2016-04-23T11:26:56.036Z,1012.72
2016-04-23T11:27:56.055Z,1012.79
2016-04-23T11:28:56.058Z,1012.71
2016-04-23T11:29:56.091Z,1012.71
2016-04-23T11:30:56.110Z,1012.73
2016-04-23T11:31:56.128Z,1012.72
2016-04-23T11:32:56.161Z,1012.79
2016-04-23T11:33:56.164Z,1012.69
2016-04-23T11:34:56.839Z,1012.6
2016-04-23T11:35:56.217Z,1012.62
2016-04-23T11:36:56.235Z,1012.62
2016-04-23T11:37:56.254Z,1012.56
2016-04-23T11:38:56.272Z,1012.53
2016-04-23T11:40:09.024Z,1012.51
2016-04-23T11:40:56.324Z,1012.51
2016-04-23T11:42:15.592Z,1012.44
2016-04-23T11:42:56.360Z,1012.43
2016-04-23T11:43:56.395Z,1012.35
2016-04-23T11:44:56.398Z,1012.38
2016-04-23T11:47:11.621Z,1012.36
2016-04-23T11:48:11.623Z,1012.4
2016-04-23T11:49:14.721Z,1012.36
2016-04-23T11:50:14.739Z,1012.33
2016-04-23T11:51:14.757Z,1012.34
2016-04-23T11:52:14.776Z,1012.4
2016-04-23T11:53:14.810Z,1012.31
2016-04-23T11:54:14.812Z,1012.39
2016-04-23T11:55:14.830Z,1012.42
2016-04-23T11:56:14.880Z,1012.41
2016-04-23T11:57:14.883Z,1012.3
2016-04-23T11:58:27.622Z,1012.34
2016-04-23T11:59:14.919Z,1012.39
2016-04-23T12:00:14.938Z,1012.37
2016-04-23T12:01:27.709Z,1012.32
2016-04-23T12:02:14.975Z,1012.31
2016-04-23T12:03:14.992Z,1012.3
2016-04-23T12:04:15.027Z,1012.36
2016-04-23T12:05:15.935Z,1012.32
2016-04-23T12:06:15.047Z,1012.37
2016-04-23T12:07:15.082Z,1012.37
2016-04-23T12:08:21.381Z,1012.34
2016-04-23T12:09:15.118Z,1012.4
2016-04-23T12:10:15.136Z,1012.44
2016-04-23T12:11:15.155Z,1012.4
2016-04-23T12:12:15.188Z,1012.42
2016-04-23T12:13:15.207Z,1012.43
2016-04-23T12:14:27.962Z,1012.41
2016-04-23T12:15:15.243Z,1012.43
2016-04-23T12:16:40.937Z,1012.43
2016-04-23T12:17:24.827Z,1012.47
2016-04-23T12:18:24.845Z,1012.42
2016-04-23T12:19:24.848Z,1012.37
2016-04-23T12:20:24.881Z,1012.35
2016-04-23T12:21:24.901Z,1012.37
2016-04-23T12:22:24.918Z,1012.34
2016-04-23T12:23:24.937Z,1012.32
2016-04-23T12:24:24.970Z,1012.33
2016-04-23T12:25:24.973Z,1012.28
2016-04-23T12:26:25.008Z,1012.26
2016-04-23T12:27:25.042Z,1012.28